Time;durP1;ratioP1;P1;durP2;ratioP2;P2;SDS_P1;SDS_P2;PMS_P1;PMS_P2;Temp;Humidity;BMP_temperature;BMP_pressure;BME280_temperature;BME280_humidity;BME280_pressure;Samples;Min_cycle;Max_cycle;Signal;HPM_P1;HPM_P2
2022/08/05 00:02:13;;;;;;;11.08;8.58;;;;;;;20.30;94.40;99724.88;1734595;81;21104;-79
2022/08/05 00:04:39;;;;;;;9.45;8.60;;;;;;;20.34;94.45;99719.80;1744190;81;21173;-79
2022/08/05 00:07:06;;;;;;;10.05;9.15;;;;;;;20.41;94.23;99717.83;1730967;81;21080;-78
2022/08/05 00:09:32;;;;;;;11.30;10.10;;;;;;;20.41;94.25;99719.99;1735373;81;21148;-79
2022/08/05 00:11:59;;;;;;;11.48;8.30;;;;;;;20.38;94.37;99722.36;1748050;81;21025;-78
2022/08/05 00:14:25;;;;;;;9.28;8.38;;;;;;;20.39;94.18;99727.50;1746124;81;21017;-82
2022/08/05 00:16:51;;;;;;;9.38;8.55;;;;;;;20.45;93.80;99721.70;1737632;81;21207;-79
2022/08/05 00:19:18;;;;;;;10.43;9.53;;;;;;;20.41;93.85;99721.34;1741767;81;21045;-81
2022/08/05 00:21:44;;;;;;;10.53;7.95;;;;;;;20.36;94.06;99725.82;1731121;80;21076;-81
2022/08/05 00:24:11;;;;;;;8.95;8.15;;;;;;;20.38;94.10;99715.08;1745247;81;20985;-79
2022/08/05 00:26:38;;;;;;;11.28;9.05;;;;;;;20.46;93.91;99713.10;1736614;81;21149;-79
2022/08/05 00:29:04;;;;;;;10.15;9.15;;;;;;;20.44;93.77;99711.98;1746159;81;21225;-79
2022/08/05 00:31:31;;;;;;;8.93;7.83;;;;;;;20.38;93.95;99721.02;1745835;81;20977;-81
2022/08/05 00:33:57;;;;;;;8.33;7.53;;;;;;;20.38;93.99;99713.73;1751188;80;21639;-79
2022/08/05 00:36:23;;;;;;;10.10;9.10;;;;;;;20.42;93.91;99711.39;1746763;81;21481;-78
2022/08/05 00:38:50;;;;;;;9.60;8.43;;;;;;;20.41;93.98;99712.44;1748814;81;21047;-81
2022/08/05 00:41:31;;;;;;;8.85;8.08;;;;;;;20.36;94.08;99708.28;1722109;82;21122;-81
2022/08/05 00:43:58;;;;;;;7.60;6.87;;;;;;;20.37;94.00;99703.98;1717488;82;21057;-80
2022/08/05 00:46:24;;;;;;;9.55;8.68;;;;;;;20.45;93.83;99704.16;1707150;83;21081;-81
2022/08/05 00:48:50;;;;;;;10.45;9.45;;;;;;;20.43;93.83;99703.58;1742801;82;20994;-79
2022/08/05 00:51:19;;;;;;;9.43;8.50;;;;;;;20.37;93.92;99695.89;1702217;82;21105;-81
2022/08/05 00:53:45;;;;;;;8.68;7.87;;;;;;;20.39;93.92;99695.66;1711048;82;21619;-81
2022/08/05 00:56:12;;;;;;;10.23;8.43;;;;;;;20.43;93.62;99692.78;1718008;82;21108;-81
2022/08/05 00:58:38;;;;;;;9.90;8.90;;;;;;;20.39;93.53;99694.31;1694273;82;21022;-81
2022/08/05 01:01:05;;;;;;;8.85;7.95;;;;;;;20.30;93.56;99699.25;1693136;83;21098;-82
2022/08/05 01:03:32;;;;;;;7.85;7.20;;;;;;;20.30;93.51;99694.36;1723025;82;21044;-81
2022/08/05 01:05:58;;;;;;;8.78;7.87;;;;;;;20.34;93.24;99695.02;1719738;82;22023;-81
2022/08/05 01:08:25;;;;;;;10.10;9.10;;;;;;;20.33;93.23;99702.81;1694999;82;21046;-83
2022/08/05 01:10:55;;;;;;;8.10;7.40;;;;;;;20.28;93.27;99705.41;1702434;82;21094;-82
2022/08/05 01:13:50;;;;;;;9.78;8.03;;;;;;;20.28;93.25;99700.01;1722956;82;21029;-82
2022/08/05 01:16:38;;;;;;;9.40;8.60;;;;;;;20.32;93.23;99692.24;1704199;82;21101;-83
2022/08/05 01:19:31;;;;;;;9.90;9.08;;;;;;;20.26;93.24;99694.53;1713395;82;21782;-82
2022/08/05 01:22:39;;;;;;;8.98;8.05;;;;;;;20.18;93.45;99697.04;1708518;82;21090;-82
2022/08/05 01:25:35;;;;;;;9.68;8.80;;;;;;;20.23;93.38;99699.34;1709742;82;21065;-83
2022/08/05 01:28:27;;;;;;;10.30;9.30;;;;;;;20.24;93.29;99689.36;1724334;82;21068;-85
2022/08/05 01:31:02;;;;;;;8.60;7.83;;;;;;;20.13;93.53;99692.36;1709220;82;21052;-84
2022/08/05 01:33:34;;;;;;;11.20;8.43;;;;;;;20.12;93.37;99686.65;1715536;82;21676;-82
2022/08/05 01:36:01;;;;;;;9.80;8.90;;;;;;;20.13;93.34;99688.84;1719589;82;21046;-80
2022/08/05 01:38:28;;;;;;;9.38;8.38;;;;;;;20.04;93.48;99680.26;1729395;80;21090;-78
2022/08/05 01:40:56;;;;;;;8.65;7.75;;;;;;;19.97;93.75;99670.09;1732752;81;21083;-80
2022/08/05 01:43:23;;;;;;;8.75;7.95;;;;;;;20.01;93.78;99675.31;1729628;81;21589;-81
2022/08/05 01:45:49;;;;;;;10.40;8.38;;;;;;;20.07;93.62;99679.80;1702985;82;21166;-78
2022/08/05 01:48:16;;;;;;;9.55;8.75;;;;;;;20.04;93.73;99676.21;1728429;81;21080;-81
2022/08/05 01:50:42;;;;;;;9.03;8.33;;;;;;;19.98;93.83;99679.84;1742702;81;21089;-79
2022/08/05 01:53:12;;;;;;;8.95;8.05;;;;;;;20.00;93.73;99674.50;1741998;81;21001;-82
2022/08/05 01:55:39;;;;;;;9.35;8.43;;;;;;;20.05;93.50;99676.52;1744541;81;21506;-81
2022/08/05 01:58:06;;;;;;;11.25;9.10;;;;;;;19.99;93.68;99678.77;1737250;81;21103;-81
2022/08/05 02:02:57;;;;;;;9.28;8.38;;;;;;;20.02;93.96;99684.53;1853927;76;22544;-80
2022/08/05 02:05:27;;;;;;;10.32;9.30;;;;;;;20.00;93.91;99689.86;1812839;77;20965;-83
2022/08/05 02:07:54;;;;;;;8.53;7.75;;;;;;;19.94;94.05;99694.84;1797240;77;21188;-82
2022/08/05 02:10:21;;;;;;;9.78;8.55;;;;;;;19.97;94.11;99691.66;1820480;77;20842;-82
2022/08/05 02:13:14;;;;;;;9.30;8.38;;;;;;;20.01;94.12;99691.49;1821869;78;21061;-82
2022/08/05 02:15:48;;;;;;;9.25;8.30;;;;;;;19.99;94.31;99686.86;1822001;78;21458;-82
2022/08/05 02:18:25;;;;;;;9.20;7.75;;;;;;;19.96;94.44;99688.16;1819478;78;21591;-82
2022/08/05 02:21:03;;;;;;;9.45;8.55;;;;;;;20.05;94.27;99694.05;1807155;77;21054;-82
2022/08/05 02:23:34;;;;;;;9.55;8.53;;;;;;;20.01;94.17;99692.34;1819578;77;20973;-82
2022/08/05 02:26:01;;;;;;;9.80;8.90;;;;;;;19.97;94.25;99699.75;1818600;78;21078;-80
2022/08/05 02:28:30;;;;;;;8.95;8.15;;;;;;;20.00;94.27;99699.30;1812893;78;21088;-80
2022/08/05 02:31:00;;;;;;;9.63;7.80;;;;;;;20.03;94.00;99691.58;1812909;78;21039;-81
2022/08/05 02:33:26;;;;;;;9.90;9.00;;;;;;;19.99;94.00;99698.48;1818218;78;21066;-80
2022/08/05 02:35:55;;;;;;;9.18;8.38;;;;;;;19.96;94.12;99699.47;1801965;78;21042;-82
2022/08/05 02:38:21;;;;;;;8.30;7.60;;;;;;;20.03;93.83;99711.80;1817476;78;21040;-80
2022/08/05 02:40:48;;;;;;;9.35;8.45;;;;;;;20.07;93.43;99705.92;1820118;77;21045;-81
2022/08/05 02:43:14;;;;;;;9.60;8.70;;;;;;;20.03;93.42;99708.29;1816385;77;21488;-81
2022/08/05 02:45:41;;;;;;;8.60;7.78;;;;;;;19.96;93.53;99708.38;1820575;78;21819;-81
2022/08/05 02:48:08;;;;;;;8.18;7.35;;;;;;;19.98;93.37;99704.92;1819653;78;21036;-80
2022/08/05 02:50:35;;;;;;;8.38;7.58;;;;;;;20.03;93.15;99716.38;1818201;78;21005;-81
2022/08/05 02:53:02;;;;;;;9.30;8.38;;;;;;;19.98;93.18;99714.36;1820852;78;21047;-81
2022/08/05 02:55:30;;;;;;;7.72;7.08;;;;;;;19.93;93.20;99710.17;1802626;78;21049;-81
2022/08/05 02:57:57;;;;;;;9.40;8.50;;;;;;;19.97;93.02;99710.03;1806457;78;22058;-82
2022/08/05 03:00:24;;;;;;;9.48;8.58;;;;;;;20.01;92.91;99708.52;1815364;77;21064;-82
2022/08/05 03:02:51;;;;;;;10.82;8.90;;;;;;;19.98;92.89;99708.15;1799335;78;21002;-82
2022/08/05 03:05:17;;;;;;;8.60;7.60;;;;;;;19.93;92.76;99707.47;1826511;77;20989;-80
2022/08/05 03:07:44;;;;;;;9.50;8.63;;;;;;;19.97;92.62;99705.14;1803933;78;20965;-82
2022/08/05 03:10:13;;;;;;;13.08;8.38;;;;;;;19.99;92.48;99701.19;1816937;77;21137;-81
2022/08/05 03:12:40;;;;;;;8.93;8.13;;;;;;;19.97;92.66;99699.75;1764421;80;21040;-79
2022/08/05 03:15:09;;;;;;;9.68;7.80;;;;;;;19.95;92.78;99701.86;1823944;77;21028;-82
2022/08/05 03:17:36;;;;;;;9.28;8.38;;;;;;;20.01;92.37;99698.23;1813250;77;21021;-83
2022/08/05 03:20:05;;;;;;;9.95;9.05;;;;;;;20.03;92.23;99699.66;1806713;77;21049;-84
2022/08/05 03:22:32;;;;;;;10.58;9.53;;;;;;;19.99;92.28;99703.03;1826499;77;21537;-84
2022/08/05 03:24:58;;;;;;;8.95;8.10;;;;;;;19.95;92.60;99703.20;1809097;77;21058;-82
2022/08/05 03:27:25;;;;;;;9.83;8.93;;;;;;;19.98;92.52;99701.41;1803566;78;20974;-85
2022/08/05 03:29:52;;;;;;;10.15;9.25;;;;;;;20.04;92.38;99695.90;1817752;77;21014;-84
2022/08/05 03:32:19;;;;;;;9.83;8.83;;;;;;;20.07;92.36;99704.58;1820725;78;21008;-81
2022/08/05 03:34:45;;;;;;;9.83;8.83;;;;;;;20.04;92.27;99704.52;1816740;78;21130;-85
2022/08/05 03:37:12;;;;;;;9.65;8.83;;;;;;;20.07;92.17;99704.58;1826021;78;20989;-80
2022/08/05 03:39:56;;;;;;;9.83;8.93;;;;;;;20.11;91.91;99707.95;1821972;77;21509;-81
2022/08/05 03:42:23;;;;;;;10.18;9.28;;;;;;;20.09;92.01;99699.77;1789417;77;21080;-81
2022/08/05 03:44:50;;;;;;;9.30;8.53;;;;;;;20.04;91.91;99705.88;1807372;78;21049;-81
2022/08/05 03:47:16;;;;;;;9.78;8.80;;;;;;;20.05;91.66;99703.48;1815289;78;21112;-82
2022/08/05 03:49:43;;;;;;;10.58;9.55;;;;;;;20.11;91.54;99705.75;1818816;78;21505;-83
2022/08/05 03:52:11;;;;;;;10.80;9.75;;;;;;;20.08;91.69;99712.44;1828512;78;21053;-81
2022/08/05 03:55:00;;;;;;;10.05;9.08;;;;;;;20.03;91.96;99714.50;1808444;78;21017;-83
2022/08/05 03:57:31;;;;;;;10.32;9.33;;;;;;;20.07;92.03;99724.30;1813986;78;21001;-84
2022/08/05 04:00:07;;;;;;;10.93;10.03;;;;;;;20.12;91.38;99715.50;1824568;78;21150;-82
2022/08/05 04:02:36;;;;;;;10.85;9.95;;;;;;;20.03;91.53;99710.45;1784987;80;21088;-83
2022/08/05 04:05:03;;;;;;;10.18;9.13;;;;;;;19.94;91.85;99708.31;1776467;80;21018;-82
2022/08/05 04:07:30;;;;;;;13.75;11.25;;;;;;;19.99;92.25;99701.69;1765981;79;21581;-76
2022/08/05 04:09:56;;;;;;;14.28;11.70;;;;;;;20.02;92.67;99700.70;1756022;80;21002;-80
2022/08/05 04:12:23;;;;;;;14.30;10.38;;;;;;;19.98;93.90;99702.76;1780721;80;21595;-79
2022/08/05 04:14:51;;;;;;;9.53;8.65;;;;;;;19.94;96.17;99704.27;1764701;80;21073;-78
2022/08/05 04:17:18;;;;;;;10.40;9.40;;;;;;;19.91;97.11;99708.23;1748486;80;21030;-77
2022/08/05 04:19:45;;;;;;;12.30;11.10;;;;;;;19.82;98.11;99706.41;1770038;80;21037;-78
2022/08/05 04:22:11;;;;;;;10.50;9.50;;;;;;;19.72;99.06;99708.84;1760058;79;21032;-80
2022/08/05 04:24:43;;;;;;;9.90;9.00;;;;;;;19.70;99.65;99714.11;1762904;79;21439;-81
2022/08/05 04:27:10;;;;;;;10.98;9.68;;;;;;;19.72;99.40;99708.84;1760939;81;20991;-80
2022/08/05 04:29:36;;;;;;;11.25;10.20;;;;;;;19.71;99.47;99711.73;1767719;81;21057;-80
2022/08/05 04:32:03;;;;;;;9.50;8.65;;;;;;;19.64;99.63;99713.15;1768030;81;21041;-81
2022/08/05 04:34:30;;;;;;;10.05;9.05;;;;;;;19.67;99.62;99714.05;1746804;79;21553;-80
2022/08/05 04:36:56;;;;;;;11.08;9.30;;;;;;;19.73;99.23;99711.81;1757530;81;21501;-80
2022/08/05 04:39:23;;;;;;;10.82;9.70;;;;;;;19.77;99.32;99710.30;1769021;81;20998;-81
2022/08/05 04:41:49;;;;;;;9.58;8.45;;;;;;;19.76;99.09;99708.67;1752047;81;21836;-81
2022/08/05 04:44:16;;;;;;;10.05;9.15;;;;;;;19.83;98.81;99713.42;1758105;79;21080;-81
2022/08/05 04:46:42;;;;;;;10.15;9.23;;;;;;;19.90;98.31;99710.64;1761025;79;21013;-80
2022/08/05 04:49:08;;;;;;;10.45;9.53;;;;;;;19.88;97.80;99710.59;1764342;81;21135;-80
2022/08/05 04:51:35;;;;;;;10.05;9.15;;;;;;;19.82;97.57;99709.09;1768835;81;21207;-79
2022/08/05 04:54:02;;;;;;;9.43;8.53;;;;;;;19.85;97.32;99707.81;1770142;79;21064;-81
2022/08/05 04:56:28;;;;;;;9.10;8.40;;;;;;;19.91;97.20;99711.46;1769987;79;21029;-82
2022/08/05 04:58:55;;;;;;;10.15;9.25;;;;;;;19.92;97.39;99711.77;1764045;79;21021;-82
2022/08/05 05:01:21;;;;;;;9.25;8.45;;;;;;;19.91;97.31;99715.50;1768644;79;21335;-82
2022/08/05 05:03:47;;;;;;;9.83;8.95;;;;;;;20.00;97.04;99708.73;1763263;81;21054;-81
2022/08/05 05:06:14;;;;;;;10.20;9.40;;;;;;;20.08;96.95;99708.40;1770193;81;21068;-82
2022/08/05 05:08:40;;;;;;;11.00;10.10;;;;;;;20.10;96.98;99707.64;1764883;81;21529;-82
2022/08/05 05:11:08;;;;;;;10.50;9.35;;;;;;;20.08;97.01;99711.63;1766891;81;21386;-80
2022/08/05 05:13:34;;;;;;;10.75;9.75;;;;;;;20.14;96.61;99713.39;1766994;79;21849;-80
2022/08/05 05:16:01;;;;;;;11.93;10.90;;;;;;;20.20;96.29;99716.00;1765813;79;21089;-82
2022/08/05 05:18:28;;;;;;;10.63;9.70;;;;;;;20.20;96.11;99716.00;1757722;79;21104;-82
2022/08/05 05:20:54;;;;;;;11.80;10.35;;;;;;;20.18;96.02;99718.08;1758226;81;20966;-83
2022/08/05 05:23:21;;;;;;;11.50;10.50;;;;;;;20.25;95.70;99725.27;1755435;79;21025;-82
2022/08/05 05:25:47;;;;;;;11.68;10.55;;;;;;;20.29;95.42;99719.17;1768864;81;21572;-81
2022/08/05 05:28:16;;;;;;;11.73;10.63;;;;;;;20.29;95.37;99722.41;1748613;79;21512;-81
2022/08/05 05:30:42;;;;;;;12.07;10.88;;;;;;;20.25;95.36;99715.83;1759877;79;20942;-82
2022/08/05 05:33:09;;;;;;;10.95;9.85;;;;;;;20.31;95.14;99731.08;1758483;80;21026;-82
2022/08/05 05:35:35;;;;;;;10.93;9.83;;;;;;;20.36;94.81;99727.98;1754765;81;21100;-82
2022/08/05 05:38:03;;;;;;;10.98;10.08;;;;;;;20.34;94.93;99722.00;1773721;80;21074;-83
2022/08/05 05:40:30;;;;;;;10.98;9.70;;;;;;;20.33;95.09;99722.23;1768799;81;21095;-79
2022/08/05 05:42:57;;;;;;;10.30;9.40;;;;;;;20.38;94.92;99727.76;1761889;79;21025;-80
2022/08/05 05:45:23;;;;;;;10.60;9.70;;;;;;;20.44;94.82;99734.91;1768535;79;21123;-80
2022/08/05 05:47:50;;;;;;;10.90;9.90;;;;;;;20.44;94.68;99730.86;1769590;81;21570;-79
2022/08/05 05:50:17;;;;;;;10.50;9.60;;;;;;;20.43;94.95;99725.97;1768579;81;21954;-80
2022/08/05 05:52:44;;;;;;;12.25;10.65;;;;;;;20.51;94.67;99730.20;1752237;81;21089;-80
2022/08/05 05:55:12;;;;;;;13.25;12.05;;;;;;;20.57;94.44;99737.89;1737936;81;21537;-80
2022/08/05 05:57:40;;;;;;;12.35;11.03;;;;;;;20.51;93.90;99741.00;1765304;79;21002;-83
2022/08/05 06:00:10;;;;;;;12.95;11.75;;;;;;;20.41;93.97;99741.58;1768750;80;21060;-86
2022/08/05 06:02:41;;;;;;;13.15;11.95;;;;;;;20.40;94.18;99738.60;1760817;81;21590;-86
2022/08/05 06:05:08;;;;;;;14.00;12.73;;;;;;;20.46;94.11;99744.94;1743147;81;21567;-84
2022/08/05 06:07:36;;;;;;;13.90;12.70;;;;;;;20.40;94.20;99745.34;1732843;82;21113;-84
2022/08/05 06:10:04;;;;;;;13.10;11.80;;;;;;;20.37;94.76;99742.28;1744941;82;21011;-83
2022/08/05 06:12:34;;;;;;;13.13;11.90;;;;;;;20.45;94.77;99743.28;1753025;81;21539;-82
2022/08/05 06:15:01;;;;;;;13.75;12.45;;;;;;;20.52;94.51;99747.24;1762038;80;21191;-83
2022/08/05 06:17:28;;;;;;;15.32;13.72;;;;;;;20.49;94.64;99739.06;1740201;80;21091;-83
2022/08/05 06:19:54;;;;;;;14.95;12.63;;;;;;;20.47;95.13;99746.57;1766945;80;21010;-81
2022/08/05 06:22:27;;;;;;;12.80;11.70;;;;;;;20.54;94.71;99745.94;1766513;80;21011;-80
2022/08/05 06:24:53;;;;;;;13.55;12.15;;;;;;;20.62;94.75;99737.52;1757315;81;21093;-82
2022/08/05 06:27:19;;;;;;;15.35;13.60;;;;;;;20.69;95.00;99736.61;1759940;81;21187;-80
2022/08/05 06:29:46;;;;;;;14.00;12.73;;;;;;;20.71;95.17;99739.36;1762488;80;21060;-80
2022/08/05 06:32:12;;;;;;;14.75;13.35;;;;;;;20.78;94.63;99740.07;1762588;81;21032;-79
2022/08/05 06:34:39;;;;;;;17.10;15.40;;;;;;;20.88;94.14;99735.94;1760577;81;20998;-79
2022/08/05 06:37:08;;;;;;;15.30;13.85;;;;;;;20.88;93.54;99733.23;1762829;80;21087;-79
2022/08/05 06:39:34;;;;;;;15.45;13.95;;;;;;;20.83;93.41;99731.79;1767361;80;21084;-79
2022/08/05 06:42:01;;;;;;;14.33;13.05;;;;;;;20.87;93.41;99731.07;1778501;80;20935;-80
2022/08/05 06:44:31;;;;;;;14.95;13.72;;;;;;;20.95;93.28;99735.29;1742624;80;21013;-82
2022/08/05 06:46:59;;;;;;;16.30;14.78;;;;;;;21.02;93.36;99731.95;1752528;80;21014;-81
2022/08/05 06:49:26;;;;;;;14.87;13.58;;;;;;;21.09;93.49;99742.06;1764218;80;21168;-80
2022/08/05 06:51:52;;;;;;;16.10;14.60;;;;;;;21.19;93.26;99746.36;1734933;82;21195;-81
2022/08/05 06:54:20;;;;;;;17.30;15.60;;;;;;;21.31;93.09;99736.06;1731108;81;21026;-80
2022/08/05 06:56:47;;;;;;;17.73;16.15;;;;;;;21.34;92.62;99739.11;1760708;81;21068;-79
2022/08/05 06:59:15;;;;;;;16.05;14.43;;;;;;;21.34;92.09;99741.81;1760681;81;21084;-79
2022/08/05 07:01:43;;;;;;;15.70;14.10;;;;;;;21.37;91.84;99744.55;1756429;81;21156;-79
2022/08/05 07:04:10;;;;;;;16.15;14.75;;;;;;;21.45;91.38;99754.20;1758809;80;21053;-84
2022/08/05 07:06:37;;;;;;;16.85;15.15;;;;;;;21.44;90.94;99751.20;1749915;81;21096;-83
2022/08/05 07:09:03;;;;;;;16.17;14.58;;;;;;;21.43;91.73;99757.11;1743903;81;21090;-84
2022/08/05 07:11:32;;;;;;;15.38;13.88;;;;;;;21.52;91.38;99760.30;1747406;81;21008;-85
2022/08/05 07:16:49;;;;;;;17.80;16.00;;;;;;;21.62;90.59;99761.84;1760474;80;21112;-76
2022/08/05 07:19:19;;;;;;;16.67;14.78;;;;;;;21.61;91.02;99756.13;1748568;80;21065;-77
2022/08/05 07:21:49;;;;;;;15.38;13.98;;;;;;;21.71;90.89;99756.35;1747367;81;21046;-75
2022/08/05 07:24:16;;;;;;;18.30;16.52;;;;;;;21.78;90.45;99758.36;1749333;81;21096;-77
2022/08/05 07:26:44;;;;;;;19.80;17.70;;;;;;;21.78;90.54;99759.71;1751580;81;21494;-76
2022/08/05 07:29:10;;;;;;;16.90;15.20;;;;;;;21.75;90.51;99761.56;1748031;80;21983;-75
2022/08/05 07:31:37;;;;;;;16.95;15.32;;;;;;;21.80;90.47;99760.29;1751758;81;21050;-75
2022/08/05 07:34:04;;;;;;;16.85;15.25;;;;;;;21.91;90.71;99764.02;1751035;81;21552;-75
2022/08/05 07:36:32;;;;;;;18.17;16.48;;;;;;;21.98;90.44;99755.23;1725745;81;21039;-76
2022/08/05 07:39:04;;;;;;;16.75;15.23;;;;;;;21.99;90.25;99766.86;1746670;81;21170;-76
2022/08/05 07:41:30;;;;;;;17.57;15.98;;;;;;;22.06;89.85;99765.34;1748051;81;21108;-75
2022/08/05 07:43:57;;;;;;;17.15;15.40;;;;;;;22.16;89.35;99763.66;1750724;80;21588;-74
2022/08/05 07:46:25;;;;;;;17.92;16.23;;;;;;;22.20;89.59;99768.05;1755754;81;21054;-77
2022/08/05 07:48:55;;;;;;;15.35;13.80;;;;;;;22.21;89.20;99769.67;1753000;81;21049;-75
2022/08/05 07:51:22;;;;;;;17.00;15.60;;;;;;;22.26;88.81;99768.45;1749229;81;21043;-75
2022/08/05 07:53:48;;;;;;;16.93;15.60;;;;;;;22.33;88.46;99765.61;1748554;81;21250;-76
2022/08/05 07:56:15;;;;;;;18.60;16.87;;;;;;;22.32;88.35;99763.95;1748758;81;21089;-76
2022/08/05 07:58:41;;;;;;;16.62;15.08;;;;;;;22.33;88.64;99765.06;1746741;80;21007;-85
2022/08/05 08:01:07;;;;;;;16.45;14.93;;;;;;;22.44;88.58;99774.16;1745075;80;21022;-81
2022/08/05 08:03:34;;;;;;;17.77;16.23;;;;;;;22.55;88.08;99772.45;1750247;81;21038;-80
2022/08/05 08:06:01;;;;;;;17.87;16.30;;;;;;;22.60;88.44;99775.77;1757909;80;21568;-78
2022/08/05 08:08:27;;;;;;;16.82;15.28;;;;;;;22.60;87.57;99772.55;1748664;80;21940;-80
2022/08/05 08:10:55;;;;;;;17.57;15.98;;;;;;;22.63;87.11;99779.34;1757883;80;21471;-80
2022/08/05 08:13:21;;;;;;;17.37;15.83;;;;;;;22.68;86.98;99773.47;1754676;80;21482;-80
2022/08/05 08:15:48;;;;;;;18.50;16.90;;;;;;;22.67;86.75;99775.06;1769768;80;21080;-80
2022/08/05 08:18:15;;;;;;;17.90;16.27;;;;;;;22.63;86.27;99775.28;1783419;80;21626;-82
2022/08/05 08:20:41;;;;;;;16.37;14.87;;;;;;;22.62;86.32;99781.23;1775279;80;21081;-82
2022/08/05 08:23:07;;;;;;;17.82;16.32;;;;;;;22.68;86.35;99784.84;1746023;80;21517;-80
2022/08/05 08:25:34;;;;;;;18.52;16.73;;;;;;;22.70;86.19;99782.71;1764138;80;21069;-78
2022/08/05 08:28:01;;;;;;;19.35;16.25;;;;;;;22.69;86.52;99781.87;1764113;81;21061;-80
2022/08/05 08:30:27;;;;;;;16.60;15.20;;;;;;;22.75;86.06;99782.26;1773036;80;21210;-82
2022/08/05 08:32:54;;;;;;;17.37;15.88;;;;;;;22.82;86.25;99782.08;1766111;81;21077;-78
2022/08/05 08:35:20;;;;;;;17.02;15.53;;;;;;;22.81;85.41;99785.02;1763024;81;21029;-83
2022/08/05 08:37:48;;;;;;;16.70;15.18;;;;;;;22.72;84.97;99779.22;1768606;79;21044;-80
2022/08/05 08:40:15;;;;;;;16.50;15.00;;;;;;;22.67;84.90;99785.90;1783583;78;22306;-82
2022/08/05 08:42:46;;;;;;;18.55;16.97;;;;;;;22.66;85.36;99778.31;1783771;80;21657;-81
2022/08/05 08:45:14;;;;;;;17.32;15.83;;;;;;;22.66;85.65;99780.22;1775834;80;20979;-81
2022/08/05 08:47:40;;;;;;;16.45;14.93;;;;;;;22.65;85.79;99779.91;1778278;78;21033;-80
2022/08/05 08:50:08;;;;;;;16.97;15.58;;;;;;;22.76;85.79;99785.78;1779413;78;21695;-81
2022/08/05 08:52:35;;;;;;;17.10;15.58;;;;;;;22.90;85.91;99786.25;1731345;80;21014;-79
2022/08/05 08:55:03;;;;;;;16.48;14.95;;;;;;;22.95;85.37;99791.21;1776884;80;21501;-80
2022/08/05 08:57:29;;;;;;;17.70;16.00;;;;;;;22.95;84.72;99791.21;1780188;80;21066;-82
2022/08/05 08:59:57;;;;;;;16.70;15.05;;;;;;;22.93;84.82;99793.35;1774729;80;21076;-79
2022/08/05 09:02:24;;;;;;;15.63;14.13;;;;;;;23.03;84.80;99789.19;1764371;80;21604;-77
2022/08/05 09:04:53;;;;;;;16.60;15.25;;;;;;;23.11;84.23;99788.21;1739268;80;21014;-82
2022/08/05 09:07:19;;;;;;;15.68;14.38;;;;;;;23.11;83.93;99792.81;1742774;80;21086;-84
2022/08/05 09:09:46;;;;;;;15.75;14.35;;;;;;;23.11;83.52;99791.46;1752690;79;21608;-81
2022/08/05 09:12:12;;;;;;;15.93;14.40;;;;;;;23.16;83.32;99788.84;1753027;79;21019;-86
2022/08/05 09:14:39;;;;;;;16.10;14.70;;;;;;;23.29;83.52;99785.73;1765634;81;21029;-85
2022/08/05 09:17:11;;;;;;;15.88;14.33;;;;;;;23.43;83.90;99795.70;1758922;79;21395;-83
2022/08/05 09:19:38;;;;;;;17.00;15.38;;;;;;;23.52;82.70;99790.64;1755647;79;21539;-81
2022/08/05 09:22:07;;;;;;;16.10;14.40;;;;;;;23.57;82.31;99802.10;1753372;79;21114;-83
2022/08/05 09:24:36;;;;;;;16.45;15.05;;;;;;;23.61;81.53;99795.09;1758220;79;21064;-83
2022/08/05 09:27:06;;;;;;;16.82;15.23;;;;;;;23.63;81.99;99794.30;1762088;79;20998;-85
2022/08/05 09:29:44;;;;;;;17.02;15.35;;;;;;;23.62;82.06;99798.89;1732488;81;21040;-84
2022/08/05 09:32:13;;;;;;;16.42;14.93;;;;;;;23.65;81.78;99791.62;1758892;79;21100;-86
2022/08/05 09:34:52;;;;;;;16.48;15.03;;;;;;;23.78;81.61;99789.58;1759296;79;21092;-85
2022/08/05 09:37:22;;;;;;;17.10;15.45;;;;;;;23.89;81.96;99794.08;1763219;79;20993;-84
2022/08/05 09:39:48;;;;;;;15.80;14.50;;;;;;;23.89;82.92;99795.43;1756984;80;21191;-83
2022/08/05 09:42:20;;;;;;;16.40;14.90;;;;;;;23.87;83.93;99797.58;1730775;81;21040;-82
2022/08/05 09:44:50;;;;;;;16.87;15.15;;;;;;;23.91;84.20;99804.13;1745369;81;21111;-81
2022/08/05 09:47:22;;;;;;;16.30;14.80;;;;;;;23.96;82.65;99799.31;1783246;79;21068;-85
2022/08/05 09:49:53;;;;;;;16.30;14.90;;;;;;;23.92;82.04;99795.75;1778799;77;21044;-85
2022/08/05 09:52:29;;;;;;;17.35;15.95;;;;;;;23.93;82.57;99800.63;1790405;76;21101;-84
2022/08/05 09:55:03;;;;;;;16.73;15.20;;;;;;;23.99;83.01;99800.98;1785690;79;21114;-83
2022/08/05 09:57:38;;;;;;;16.93;15.53;;;;;;;24.17;82.84;99807.95;1766935;80;21132;-86
2022/08/05 10:00:15;;;;;;;21.77;19.87;;;;;;;24.30;81.58;99812.97;1773498;80;21050;-85
2022/08/05 10:02:45;;;;;;;21.30;19.50;;;;;;;24.34;81.26;99814.62;1763631;81;21610;-84
2022/08/05 10:05:21;;;;;;;18.45;16.77;;;;;;;24.33;81.21;99808.91;1766274;78;21013;-85
2022/08/05 10:07:56;;;;;;;18.50;16.80;;;;;;;24.38;80.70;99811.67;1746932;79;21062;-85
2022/08/05 10:10:26;;;;;;;18.32;16.62;;;;;;;24.39;81.84;99817.37;1750696;81;21153;-82
2022/08/05 10:12:56;;;;;;;19.57;17.67;;;;;;;24.36;82.29;99811.63;1745158;81;21116;-84
2022/08/05 10:15:28;;;;;;;18.92;17.05;;;;;;;24.38;82.20;99817.11;1760039;81;21017;-84
2022/08/05 10:18:11;;;;;;;17.17;15.60;;;;;;;24.44;81.40;99809.28;1765280;81;21060;-84
2022/08/05 10:20:46;;;;;;;17.90;16.10;;;;;;;24.55;80.47;99805.31;1768797;80;21092;-83
2022/08/05 10:23:17;;;;;;;17.50;15.93;;;;;;;24.58;80.44;99805.63;1769208;81;22386;-84
2022/08/05 10:25:43;;;;;;;18.65;17.00;;;;;;;24.58;80.79;99807.53;1767035;81;21072;-84
2022/08/05 10:28:10;;;;;;;17.73;16.02;;;;;;;24.65;80.36;99812.21;1753876;79;21036;-82
2022/08/05 10:30:37;;;;;;;17.32;15.72;;;;;;;24.77;79.85;99816.91;1761855;79;21638;-82
2022/08/05 10:33:03;;;;;;;17.85;16.02;;;;;;;24.75;79.67;99812.83;1760659;81;21092;-86
2022/08/05 10:35:32;;;;;;;18.45;16.87;;;;;;;24.63;78.53;99815.18;1761112;79;21933;-84
2022/08/05 10:38:01;;;;;;;18.07;16.45;;;;;;;24.51;78.70;99823.50;1756609;79;21056;-84
2022/08/05 10:40:36;;;;;;;19.45;17.75;;;;;;;24.43;78.48;99819.84;1728782;79;21655;-85
2022/08/05 10:43:44;;;;;;;19.45;17.75;;;;;;;24.39;78.61;99817.37;1760670;81;21605;-83
2022/08/05 10:46:13;;;;;;;19.52;17.90;;;;;;;24.29;79.46;99818.64;1754165;79;21587;-82
2022/08/05 10:48:43;;;;;;;20.85;19.05;;;;;;;24.17;79.80;99820.70;1757312;79;21236;-83
2022/08/05 10:51:17;;;;;;;19.85;17.87;;;;;;;24.16;80.36;99819.05;1760774;79;21005;-85
2022/08/05 10:53:53;;;;;;;20.50;18.37;;;;;;;24.26;80.30;99818.63;1756711;79;21147;-82
2022/08/05 10:56:23;;;;;;;20.12;18.25;;;;;;;24.41;80.99;99819.29;1756303;80;21012;-85
2022/08/05 10:59:05;;;;;;;20.17;18.57;;;;;;;24.48;80.10;99817.19;1757259;79;21095;-78
2022/08/05 11:01:42;;;;;;;19.87;18.17;;;;;;;24.50;79.79;99812.86;1756626;78;21230;-86
2022/08/05 11:04:18;;;;;;;20.25;18.42;;;;;;;24.49;79.40;99813.92;1759231;80;20968;-83
2022/08/05 11:07:03;;;;;;;21.87;19.98;;;;;;;24.63;79.16;99815.73;1717971;82;21066;-85
2022/08/05 11:09:47;;;;;;;21.80;19.73;;;;;;;24.95;82.16;99812.95;1742952;81;21073;-85
2022/08/05 11:12:41;;;;;;;20.45;18.67;;;;;;;25.38;82.16;99804.80;1741422;80;21099;-83
2022/08/05 11:15:17;;;;;;;21.15;19.35;;;;;;;25.78;80.33;99810.95;1742327;81;21202;-84
2022/08/05 11:17:49;;;;;;;19.15;17.52;;;;;;;26.28;79.01;99801.84;1746509;80;21093;-82
2022/08/05 11:20:40;;;;;;;19.45;17.87;;;;;;;26.79;77.29;99799.16;1735254;81;21060;-82
2022/08/05 11:23:34;;;;;;;20.35;18.65;;;;;;;27.26;75.65;99798.55;1742742;81;21066;-82
2022/08/05 11:26:10;;;;;;;19.57;17.80;;;;;;;27.83;75.32;99795.02;1740779;80;21000;-82
2022/08/05 11:28:46;;;;;;;17.57;16.20;;;;;;;28.63;76.02;99796.16;1739909;80;21096;-84
2022/08/05 11:31:18;;;;;;;18.62;17.07;;;;;;;29.46;71.47;99790.67;1747412;81;21105;-82
2022/08/05 11:33:56;;;;;;;18.52;17.10;;;;;;;30.09;66.40;99788.17;1735631;80;27271;-81
2022/08/05 11:36:43;;;;;;;19.90;18.40;;;;;;;30.41;65.62;99786.63;1748161;80;21045;-83
2022/08/05 11:39:10;;;;;;;18.32;16.82;;;;;;;30.67;64.57;99789.73;1728973;81;21159;-82